createdAt,value
2022-08-27T00:01:24.933Z,69.65
2022-08-27T00:03:54.937Z,68.63
2022-08-27T00:06:23.698Z,68.65
2022-08-27T00:08:51.868Z,65.32
2022-08-27T00:11:20.911Z,71.00
2022-08-27T00:13:48.587Z,61.55
2022-08-27T00:16:17.694Z,60.05
2022-08-27T00:18:48.292Z,50.13
2022-08-27T00:21:17.457Z,70.20
2022-08-27T00:23:45.009Z,67.18
2022-08-27T00:26:13.315Z,59.97
2022-08-27T00:28:42.549Z,53.85
2022-08-27T00:31:12.139Z,52.80
2022-08-27T00:33:40.609Z,61.30
2022-08-27T00:36:08.824Z,53.97
2022-08-27T00:38:38.826Z,59.83
2022-08-27T00:41:09.133Z,50.63
2022-08-27T00:43:50.421Z,51.42
2022-08-27T00:46:24.523Z,61.20
2022-08-27T00:48:54.483Z,56.65
2022-08-27T00:51:22.631Z,56.13
2022-08-27T00:53:51.388Z,62.85
2022-08-27T00:56:23.476Z,74.60
2022-08-27T00:58:53.039Z,73.32
2022-08-27T01:01:24.580Z,68.65
2022-08-27T01:03:57.795Z,80.85
2022-08-27T01:06:30.073Z,66.03
2022-08-27T01:09:08.169Z,80.03
2022-08-27T01:11:35.680Z,89.47
2022-08-27T01:14:04.902Z,83.65
2022-08-27T01:16:36.981Z,82.70
2022-08-27T01:19:22.741Z,78.65
2022-08-27T01:22:26.041Z,74.85
2022-08-27T01:24:57.293Z,66.88
2022-08-27T01:27:28.181Z,77.55
2022-08-27T01:29:55.734Z,69.50
2022-08-27T01:32:31.101Z,77.70
2022-08-27T01:34:59.473Z,75.85
2022-08-27T01:37:28.088Z,84.10
2022-08-27T01:39:59.002Z,77.22
2022-08-27T01:42:37.224Z,79.78
2022-08-27T01:45:08.938Z,73.32
2022-08-27T01:47:37.638Z,67.55
2022-08-27T01:50:10.154Z,79.13
2022-08-27T01:52:37.605Z,75.82
2022-08-27T01:55:07.583Z,72.90
2022-08-27T01:57:35.627Z,64.70
2022-08-27T02:00:08.983Z,74.28
2022-08-27T02:02:36.374Z,68.05
2022-08-27T02:05:04.073Z,57.22
2022-08-27T02:07:31.367Z,57.17
2022-08-27T02:09:58.744Z,58.35
2022-08-27T02:12:26.174Z,56.38
2022-08-27T02:14:53.393Z,58.03
2022-08-27T02:17:20.621Z,80.88
2022-08-27T02:19:48.754Z,66.05
2022-08-27T02:22:17.489Z,57.80
2022-08-27T02:24:44.890Z,66.40
2022-08-27T02:27:15.647Z,69.10
2022-08-27T02:29:42.986Z,80.43
2022-08-27T02:32:23.943Z,69.15
2022-08-27T02:34:58.001Z,77.35
2022-08-27T02:37:25.702Z,68.13
2022-08-27T02:39:53.235Z,77.43
2022-08-27T02:42:20.734Z,71.78
2022-08-27T02:44:48.290Z,71.05
2022-08-27T02:47:17.221Z,81.90
2022-08-27T02:49:44.788Z,75.90
2022-08-27T02:52:12.499Z,67.45
2022-08-27T02:54:40.972Z,75.13
2022-08-27T02:57:09.514Z,65.55
2022-08-27T02:59:37.304Z,61.67
2022-08-27T03:02:05.231Z,56.72
2022-08-27T03:04:32.706Z,75.55
2022-08-27T03:07:00.730Z,63.55
2022-08-27T03:09:28.008Z,73.20
2022-08-27T03:11:55.544Z,71.30
2022-08-27T03:14:22.909Z,73.22
2022-08-27T03:16:50.200Z,71.30
2022-08-27T03:19:24.073Z,69.28
2022-08-27T03:21:54.370Z,70.13
2022-08-27T03:24:22.151Z,69.88
2022-08-27T03:26:52.603Z,65.07
2022-08-27T03:29:21.487Z,81.10
2022-08-27T03:31:49.163Z,76.80
2022-08-27T03:34:19.738Z,64.28
2022-08-27T03:36:49.229Z,64.95
2022-08-27T03:39:16.616Z,59.85
2022-08-27T03:41:54.737Z,64.60
2022-08-27T03:44:24.534Z,59.10
2022-08-27T03:46:52.965Z,50.17
2022-08-27T03:49:21.941Z,56.80
2022-08-27T03:51:54.362Z,47.72
2022-08-27T03:54:21.867Z,50.13
2022-08-27T03:56:49.497Z,48.85
2022-08-27T03:59:17.048Z,42.97
2022-08-27T04:01:45.620Z,42.60
2022-08-27T04:04:13.404Z,38.88
2022-08-27T04:06:44.027Z,44.75
2022-08-27T04:09:11.436Z,52.45
2022-08-27T04:11:38.797Z,68.05
2022-08-27T04:14:18.220Z,53.85
2022-08-27T04:16:55.247Z,64.32
2022-08-27T04:19:26.968Z,71.30
2022-08-27T04:21:59.216Z,74.00
2022-08-27T04:24:26.629Z,71.35
2022-08-27T04:26:54.026Z,77.07
2022-08-27T04:29:21.394Z,78.25
2022-08-27T04:31:49.047Z,79.40
2022-08-27T04:34:17.738Z,82.43
2022-08-27T04:36:46.342Z,76.88
2022-08-27T04:39:14.694Z,64.63
2022-08-27T04:41:42.230Z,91.75
2022-08-27T04:44:11.315Z,65.75
2022-08-27T04:46:41.034Z,72.22
2022-08-27T04:49:15.343Z,68.22
2022-08-27T04:51:43.489Z,67.85
2022-08-27T04:54:11.166Z,64.43
2022-08-27T04:56:39.539Z,72.63
2022-08-27T04:59:09.507Z,69.03
2022-08-27T05:01:38.077Z,63.95
2022-08-27T05:04:08.354Z,58.63
2022-08-27T05:06:37.217Z,57.35
2022-08-27T05:09:06.042Z,57.63
2022-08-27T05:11:35.021Z,58.55
2022-08-27T05:14:04.257Z,65.40
2022-08-27T05:16:31.918Z,50.17
2022-08-27T05:19:00.283Z,57.40
2022-08-27T05:21:32.033Z,51.63
2022-08-27T05:24:01.316Z,69.88
2022-08-27T05:26:29.682Z,60.53
2022-08-27T05:28:59.573Z,55.20
2022-08-27T05:31:28.066Z,62.20
2022-08-27T05:33:56.774Z,65.00
2022-08-27T05:36:29.695Z,57.20
2022-08-27T05:38:59.117Z,61.75
2022-08-27T05:41:34.267Z,60.40
2022-08-27T05:44:24.182Z,60.22
2022-08-27T05:46:54.157Z,60.55
2022-08-27T05:49:21.842Z,60.47
2022-08-27T05:51:49.195Z,59.17
2022-08-27T05:54:19.961Z,74.25
2022-08-27T05:56:50.168Z,59.58
2022-08-27T05:59:37.587Z,62.72
2022-08-27T06:02:06.426Z,57.95
2022-08-27T06:04:34.018Z,54.55
2022-08-27T06:07:01.427Z,64.28
2022-08-27T06:09:29.784Z,50.03
2022-08-27T06:11:59.294Z,50.13
2022-08-27T06:14:27.514Z,42.63
2022-08-27T06:16:55.935Z,52.50
2022-08-27T06:19:24.115Z,47.05
2022-08-27T06:22:01.113Z,42.08
2022-08-27T06:24:39.751Z,44.60
2022-08-27T06:27:07.403Z,43.58
2022-08-27T06:29:35.443Z,50.88
2022-08-27T06:32:02.850Z,43.63
2022-08-27T06:34:30.252Z,40.92
2022-08-27T06:36:57.620Z,42.15
2022-08-27T06:39:25.048Z,50.30
2022-08-27T06:41:52.348Z,44.50
2022-08-27T06:44:20.200Z,33.65
2022-08-27T06:46:47.908Z,52.35
2022-08-27T06:49:15.236Z,36.80
2022-08-27T06:51:47.189Z,35.40
2022-08-27T06:54:15.615Z,36.28
2022-08-27T06:56:44.805Z,35.85
2022-08-27T06:59:15.855Z,31.75
2022-08-27T07:01:45.851Z,41.20
2022-08-27T07:04:19.817Z,33.88
2022-08-27T07:06:47.263Z,32.70
2022-08-27T07:09:14.621Z,33.17
2022-08-27T07:11:42.093Z,35.42
2022-08-27T07:14:09.962Z,32.80
2022-08-27T07:16:38.890Z,46.15
2022-08-27T07:19:08.287Z,36.50
2022-08-27T07:21:36.310Z,29.77
2022-08-27T07:24:06.609Z,29.52
2022-08-27T07:26:36.862Z,27.10
2022-08-27T07:29:09.203Z,33.55
2022-08-27T07:31:37.022Z,37.60
2022-08-27T07:34:05.646Z,33.63
2022-08-27T07:36:34.644Z,34.70
2022-08-27T07:39:02.482Z,30.90
2022-08-27T07:41:31.827Z,33.20
2022-08-27T07:44:19.588Z,33.95
2022-08-27T07:46:49.342Z,36.10
2022-08-27T07:49:18.485Z,28.00
2022-08-27T07:51:46.465Z,37.70
2022-08-27T07:54:13.998Z,33.35
2022-08-27T07:56:41.610Z,29.17
2022-08-27T07:59:09.025Z,29.05
2022-08-27T08:01:37.036Z,30.88
2022-08-27T08:04:05.415Z,31.23
2022-08-27T08:06:32.732Z,30.15
2022-08-27T08:09:01.935Z,31.85
2022-08-27T08:11:29.813Z,34.67
2022-08-27T08:13:57.263Z,32.65
2022-08-27T08:16:30.997Z,31.00
2022-08-27T08:19:00.648Z,30.08
2022-08-27T08:21:31.065Z,33.53
2022-08-27T08:23:59.139Z,35.45
2022-08-27T08:26:26.667Z,27.58
2022-08-27T08:28:54.243Z,27.48
2022-08-27T08:31:24.246Z,24.17
2022-08-27T08:33:52.585Z,26.00
2022-08-27T08:36:20.552Z,31.83
2022-08-27T08:38:48.193Z,24.38
2022-08-27T08:41:38.616Z,25.30
2022-08-27T08:44:32.778Z,19.13
2022-08-27T08:47:15.764Z,16.83
2022-08-27T08:49:59.652Z,13.63
2022-08-27T08:52:37.460Z,16.27
2022-08-27T08:55:29.072Z,8.70
2022-08-27T08:58:45.883Z,11.73
2022-08-27T09:03:56.849Z,11.43
2022-08-27T09:06:26.965Z,9.65
2022-08-27T09:08:55.191Z,9.00
2022-08-27T09:11:25.719Z,9.52
2022-08-27T09:14:02.227Z,11.45
2022-08-27T09:16:30.044Z,11.20
2022-08-27T09:18:57.424Z,8.70
2022-08-27T09:21:33.615Z,10.43
2022-08-27T09:24:05.947Z,11.80
2022-08-27T09:26:37.258Z,11.38
2022-08-27T09:29:17.470Z,8.90
2022-08-27T09:32:00.679Z,7.18
2022-08-27T09:34:35.834Z,9.45
2022-08-27T09:39:45.440Z,6.40
2022-08-27T09:42:23.068Z,6.95
2022-08-27T09:44:53.540Z,6.53
2022-08-27T09:47:21.086Z,10.00
2022-08-27T09:49:48.836Z,6.85
2022-08-27T09:52:38.150Z,9.95
2022-08-27T09:55:07.353Z,8.32
2022-08-27T09:57:39.944Z,10.95
2022-08-27T10:00:15.654Z,7.15
2022-08-27T10:02:54.059Z,9.52
2022-08-27T10:05:29.623Z,10.10
2022-08-27T10:08:02.272Z,9.32
2022-08-27T10:10:49.686Z,9.02
2022-08-27T10:13:26.197Z,7.55
2022-08-27T10:16:07.475Z,9.73
2022-08-27T10:18:41.701Z,11.00
2022-08-27T10:21:17.135Z,10.98
2022-08-27T10:23:47.819Z,9.00
2022-08-27T10:26:31.857Z,9.50
2022-08-27T10:29:19.960Z,8.95
2022-08-27T10:31:59.390Z,13.85
2022-08-27T10:34:27.126Z,26.67
2022-08-27T10:37:19.718Z,8.18
2022-08-27T10:40:08.291Z,15.32
2022-08-27T10:43:01.204Z,19.92
2022-08-27T10:45:51.728Z,20.40
2022-08-27T10:48:30.989Z,19.98
2022-08-27T10:51:09.371Z,18.90
2022-08-27T10:54:08.638Z,17.00
2022-08-27T10:57:22.771Z,16.92
2022-08-27T11:00:16.089Z,18.92
2022-08-27T11:02:58.165Z,21.55
2022-08-27T11:05:33.053Z,22.35
2022-08-27T11:08:24.050Z,22.15
2022-08-27T11:11:35.051Z,21.13
2022-08-27T11:14:01.406Z,17.25
2022-08-27T11:16:53.097Z,16.02
2022-08-27T11:19:31.764Z,18.73
2022-08-27T11:22:21.471Z,17.67
2022-08-27T11:24:57.114Z,19.02
2022-08-27T11:27:29.394Z,15.43
2022-08-27T11:30:03.624Z,15.43
2022-08-27T11:33:01.938Z,15.95
2022-08-27T11:36:04.410Z,21.25
2022-08-27T11:38:40.333Z,23.15
2022-08-27T11:41:52.546Z,24.35
2022-08-27T11:44:24.370Z,26.42
2022-08-27T11:47:10.957Z,32.00
2022-08-27T11:49:52.112Z,24.88
2022-08-27T11:52:47.670Z,32.88
2022-08-27T11:55:30.579Z,26.38
2022-08-27T11:58:29.597Z,26.73
2022-08-27T12:01:03.808Z,39.40
2022-08-27T12:03:35.531Z,27.45
2022-08-27T12:06:09.746Z,37.25
2022-08-27T12:11:31.638Z,28.52
2022-08-27T12:14:04.969Z,27.92
2022-08-27T12:16:53.363Z,23.77
2022-08-27T12:19:34.489Z,37.80
2022-08-27T12:22:29.538Z,27.60
2022-08-27T12:25:00.043Z,30.55
2022-08-27T12:27:37.347Z,31.27
2022-08-27T12:30:49.744Z,26.45
2022-08-27T12:33:42.519Z,30.35
2022-08-27T12:36:27.685Z,24.92
2022-08-27T12:38:58.739Z,33.15
2022-08-27T12:44:33.758Z,32.28
2022-08-27T12:47:05.558Z,41.08
2022-08-27T12:49:58.981Z,38.15
2022-08-27T12:52:40.956Z,38.92
2022-08-27T12:55:31.483Z,39.60
2022-08-27T12:58:20.044Z,36.58
2022-08-27T13:01:09.235Z,29.48
2022-08-27T13:03:41.266Z,29.08
2022-08-27T13:06:18.834Z,35.72
2022-08-27T13:08:47.439Z,33.53
2022-08-27T13:11:26.329Z,40.35
2022-08-27T13:14:04.670Z,38.70
2022-08-27T13:16:33.237Z,26.80
2022-08-27T13:19:02.626Z,32.10
2022-08-27T13:21:33.271Z,25.67
2022-08-27T13:24:06.357Z,35.55
2022-08-27T13:26:37.769Z,29.08
2022-08-27T13:29:09.088Z,26.23
2022-08-27T13:31:37.416Z,26.00
2022-08-27T13:34:06.730Z,24.02
2022-08-27T13:37:02.664Z,25.02
2022-08-27T13:39:30.357Z,17.02
2022-08-27T13:42:01.189Z,20.17
2022-08-27T13:44:35.317Z,20.05
2022-08-27T13:47:21.833Z,23.52
2022-08-27T13:49:49.595Z,16.92
2022-08-27T13:52:22.761Z,19.08
2022-08-27T13:54:56.040Z,20.48
2022-08-27T13:57:29.884Z,21.63
2022-08-27T14:00:19.263Z,17.02
2022-08-27T14:02:55.717Z,16.83
2022-08-27T14:05:23.555Z,20.10
2022-08-27T14:07:56.006Z,23.17
2022-08-27T14:10:37.032Z,18.73
2022-08-27T14:13:18.379Z,21.67
2022-08-27T14:15:51.363Z,13.60
2022-08-27T14:18:55.433Z,18.17
2022-08-27T14:21:19.859Z,15.98
2022-08-27T14:23:47.840Z,15.60
2022-08-27T14:26:17.633Z,10.90
2022-08-27T14:28:46.475Z,19.75
2022-08-27T14:31:14.600Z,22.30
2022-08-27T14:33:42.228Z,27.60
2022-08-27T14:36:10.583Z,12.40
2022-08-27T14:38:42.216Z,13.88
2022-08-27T14:41:09.649Z,14.32
2022-08-27T14:43:38.147Z,13.65
2022-08-27T14:46:08.652Z,13.70
2022-08-27T14:48:37.213Z,15.82
2022-08-27T14:51:13.304Z,15.00
2022-08-27T14:53:40.580Z,14.68
2022-08-27T14:56:07.865Z,19.88
2022-08-27T14:58:35.419Z,11.57
2022-08-27T15:01:04.425Z,14.93
2022-08-27T15:03:34.898Z,13.32
2022-08-27T15:06:02.224Z,14.57
2022-08-27T15:08:32.301Z,8.50
2022-08-27T15:11:00.475Z,13.35
2022-08-27T15:13:27.941Z,14.23
2022-08-27T15:15:55.695Z,10.05
2022-08-27T15:18:23.172Z,13.25
2022-08-27T15:20:50.939Z,10.90
2022-08-27T15:23:18.328Z,16.23
2022-08-27T15:25:46.715Z,13.32
2022-08-27T15:28:14.135Z,12.18
2022-08-27T15:30:41.660Z,8.43
2022-08-27T15:33:09.190Z,12.35
2022-08-27T15:35:36.511Z,10.05
2022-08-27T15:38:03.924Z,12.90
2022-08-27T15:40:35.662Z,10.05
2022-08-27T15:43:06.673Z,8.82
2022-08-27T15:45:34.714Z,12.07
2022-08-27T15:48:02.136Z,9.80
2022-08-27T15:50:31.452Z,10.20
2022-08-27T15:53:02.734Z,8.90
2022-08-27T15:55:34.225Z,8.10
2022-08-27T15:58:01.759Z,14.15
2022-08-27T16:00:30.395Z,10.80
2022-08-27T16:02:57.832Z,11.25
2022-08-27T16:05:28.328Z,9.23
2022-08-27T16:07:55.647Z,9.63
2022-08-27T16:10:23.010Z,13.18
2022-08-27T16:12:50.250Z,10.48
2022-08-27T16:15:17.830Z,13.73
2022-08-27T16:17:45.884Z,12.13
2022-08-27T16:20:15.683Z,13.68
2022-08-27T16:22:43.989Z,8.95
2022-08-27T16:25:17.828Z,11.35
2022-08-27T16:27:45.928Z,13.25
2022-08-27T16:30:13.775Z,7.95
2022-08-27T16:32:49.319Z,5.40
2022-08-27T16:35:17.467Z,7.95
2022-08-27T16:37:44.917Z,18.40
2022-08-27T16:40:13.800Z,8.32
2022-08-27T16:42:45.243Z,6.55
2022-08-27T16:45:14.438Z,4.72
2022-08-27T16:48:01.682Z,6.50
2022-08-27T16:50:35.274Z,6.25
2022-08-27T16:53:16.922Z,7.47
2022-08-27T16:55:53.954Z,15.05
2022-08-27T16:58:28.428Z,9.13
2022-08-27T17:00:58.745Z,6.20
2022-08-27T17:03:26.519Z,11.90
2022-08-27T17:05:54.145Z,19.60
2022-08-27T17:08:26.657Z,6.07
2022-08-27T17:10:55.642Z,10.55
2022-08-27T17:13:28.273Z,10.43
2022-08-27T17:15:56.572Z,5.60
2022-08-27T17:18:27.996Z,3.20
2022-08-27T17:20:57.306Z,9.57
2022-08-27T17:23:40.483Z,5.90
2022-08-27T17:26:10.336Z,8.73
2022-08-27T17:28:41.824Z,10.30
2022-08-27T17:31:12.060Z,10.13
2022-08-27T17:33:43.443Z,15.55
2022-08-27T17:36:12.125Z,9.38
2022-08-27T17:38:40.006Z,6.07
2022-08-27T17:41:22.146Z,6.70
2022-08-27T17:43:49.565Z,10.68
2022-08-27T17:46:17.135Z,7.63
2022-08-27T17:48:44.567Z,10.35
2022-08-27T17:51:13.563Z,6.03
2022-08-27T17:53:47.388Z,6.72
2022-08-27T17:56:16.923Z,4.68
2022-08-27T17:58:44.367Z,6.20
2022-08-27T18:01:11.736Z,7.55
2022-08-27T18:03:47.913Z,7.78
2022-08-27T18:06:20.991Z,12.60
2022-08-27T18:08:48.254Z,6.57
2022-08-27T18:11:15.612Z,12.40
2022-08-27T18:13:43.028Z,8.43
2022-08-27T18:16:10.309Z,6.05
2022-08-27T18:18:38.593Z,6.97
2022-08-27T18:21:08.773Z,5.70
2022-08-27T18:23:37.731Z,9.63
2022-08-27T18:26:12.292Z,9.40
2022-08-27T18:28:39.681Z,7.35
2022-08-27T18:31:09.109Z,6.45
2022-08-27T18:33:37.227Z,9.38
2022-08-27T18:36:05.739Z,10.13
2022-08-27T18:38:33.142Z,9.60
2022-08-27T18:41:00.792Z,11.45
2022-08-27T18:43:33.279Z,5.75
2022-08-27T18:46:01.085Z,14.68
2022-08-27T18:48:28.806Z,14.88
2022-08-27T18:50:59.038Z,14.20
2022-08-27T18:53:29.537Z,13.73
2022-08-27T18:55:56.827Z,11.57
2022-08-27T18:58:24.558Z,21.73
2022-08-27T19:00:55.858Z,8.20
2022-08-27T19:03:33.690Z,27.05
2022-08-27T19:06:01.889Z,9.95
2022-08-27T19:08:37.347Z,7.22
2022-08-27T19:11:04.707Z,5.13
2022-08-27T19:13:32.420Z,7.10
2022-08-27T19:16:03.150Z,26.75
2022-08-27T19:18:33.614Z,10.05
2022-08-27T19:21:01.498Z,9.27
2022-08-27T19:23:28.806Z,10.02
2022-08-27T19:25:58.354Z,11.20
2022-08-27T19:28:31.756Z,5.65
2022-08-27T19:30:58.953Z,10.15
2022-08-27T19:33:26.210Z,3.78
2022-08-27T19:35:53.445Z,11.45
2022-08-27T19:38:21.392Z,15.73
2022-08-27T19:40:51.501Z,10.57
2022-08-27T19:43:20.753Z,15.98
2022-08-27T19:45:48.290Z,11.80
2022-08-27T19:48:17.271Z,11.30
2022-08-27T19:50:45.173Z,7.57
2022-08-27T19:53:13.324Z,12.88
2022-08-27T19:55:45.710Z,12.63
2022-08-27T19:58:14.596Z,8.98
2022-08-27T20:00:42.779Z,6.03
2022-08-27T20:03:10.293Z,9.02
2022-08-27T20:05:37.633Z,13.30
2022-08-27T20:08:05.879Z,9.68
2022-08-27T20:10:36.659Z,11.75
2022-08-27T20:13:05.190Z,17.92
2022-08-27T20:15:33.378Z,10.55
2022-08-27T20:18:00.634Z,12.32
2022-08-27T20:20:29.491Z,9.90
2022-08-27T20:22:56.952Z,8.13
2022-08-27T20:25:25.292Z,10.57
2022-08-27T20:27:53.150Z,9.90
2022-08-27T20:30:24.045Z,11.02
2022-08-27T20:32:51.324Z,9.65
2022-08-27T20:35:22.282Z,14.15
2022-08-27T20:37:49.760Z,9.90
2022-08-27T20:40:25.547Z,9.25
2022-08-27T20:42:53.189Z,11.45
2022-08-27T20:45:20.995Z,22.65
2022-08-27T20:47:49.441Z,13.50
2022-08-27T20:50:19.147Z,11.13
2022-08-27T20:52:47.142Z,10.50
2022-08-27T20:55:15.851Z,12.73
2022-08-27T20:58:11.642Z,13.30
2022-08-27T21:00:41.931Z,16.50
2022-08-27T21:03:11.428Z,7.43
2022-08-27T21:05:39.467Z,13.80
2022-08-27T21:08:09.065Z,12.15
2022-08-27T21:10:36.586Z,8.70
2022-08-27T21:13:05.675Z,13.25
2022-08-27T21:15:33.389Z,12.70
2022-08-27T21:18:00.647Z,17.10
2022-08-27T21:20:28.258Z,9.68
2022-08-27T21:22:58.147Z,12.70
2022-08-27T21:25:26.268Z,14.40
2022-08-27T21:27:54.546Z,20.15
2022-08-27T21:30:22.758Z,11.85
2022-08-27T21:32:50.138Z,18.92
2022-08-27T21:35:17.419Z,14.85
2022-08-27T21:37:44.771Z,14.88
2022-08-27T21:40:12.312Z,17.35
2022-08-27T21:42:40.025Z,11.73
2022-08-27T21:45:07.686Z,15.52
2022-08-27T21:47:35.887Z,13.38
2022-08-27T21:50:03.181Z,14.60
2022-08-27T21:52:30.643Z,15.45
2022-08-27T21:54:57.791Z,19.40
2022-08-27T21:57:25.145Z,12.25
2022-08-27T21:59:52.527Z,14.63
2022-08-27T22:02:40.258Z,12.57
2022-08-27T22:05:09.187Z,10.40
2022-08-27T22:07:36.488Z,14.38
2022-08-27T22:10:04.815Z,17.08
2022-08-27T22:12:32.100Z,11.57
2022-08-27T22:14:59.353Z,16.40
2022-08-27T22:17:26.788Z,21.90
2022-08-27T22:19:53.955Z,15.25
2022-08-27T22:22:21.173Z,10.82
2022-08-27T22:24:48.255Z,17.65
2022-08-27T22:27:15.606Z,9.77
2022-08-27T22:29:42.866Z,10.70
2022-08-27T22:32:10.161Z,12.15
2022-08-27T22:34:37.574Z,12.40
2022-08-27T22:37:05.662Z,26.52
2022-08-27T22:39:33.047Z,13.90
2022-08-27T22:42:00.464Z,16.70
2022-08-27T22:44:29.589Z,18.50
2022-08-27T22:46:58.048Z,11.30
2022-08-27T22:49:25.431Z,18.70
2022-08-27T22:51:52.745Z,14.07
2022-08-27T22:54:20.079Z,27.67
2022-08-27T22:56:50.401Z,19.23
2022-08-27T22:59:17.690Z,17.70
2022-08-27T23:01:44.950Z,19.02
2022-08-27T23:04:17.812Z,14.50
2022-08-27T23:06:45.268Z,10.85
2022-08-27T23:09:12.750Z,16.60
2022-08-27T23:11:40.175Z,40.22
2022-08-27T23:14:07.397Z,13.23
2022-08-27T23:16:34.915Z,12.68
2022-08-27T23:19:02.285Z,14.70
2022-08-27T23:21:29.792Z,11.52
2022-08-27T23:23:57.194Z,19.65
2022-08-27T23:26:43.311Z,12.75
2022-08-27T23:29:11.536Z,18.73
2022-08-27T23:31:39.346Z,12.63
2022-08-27T23:34:06.572Z,16.77
2022-08-27T23:36:34.938Z,9.90
2022-08-27T23:39:02.336Z,20.48
2022-08-27T23:41:30.956Z,20.80
2022-08-27T23:43:58.454Z,19.90
2022-08-27T23:46:25.716Z,19.15
2022-08-27T23:48:53.323Z,12.05
2022-08-27T23:51:20.869Z,14.77
2022-08-27T23:53:48.660Z,15.48
2022-08-27T23:56:15.881Z,17.13
2022-08-27T23:58:43.362Z,14.07
